createdAt,value
2018-12-02T00:00:38.424Z,0.80
2018-12-02T00:03:07.991Z,0.80
2018-12-02T00:05:36.763Z,0.77
2018-12-02T00:08:05.159Z,0.80
2018-12-02T00:10:33.264Z,0.90
2018-12-02T00:13:01.543Z,0.70
2018-12-02T00:15:29.994Z,0.80
2018-12-02T00:17:59.063Z,0.87
2018-12-02T00:20:27.151Z,0.80
2018-12-02T00:22:55.308Z,0.80
2018-12-02T00:25:23.424Z,0.93
2018-12-02T00:27:52.696Z,0.60
2018-12-02T00:30:22.808Z,0.60
2018-12-02T00:32:50.924Z,0.70
2018-12-02T00:35:19.203Z,0.80
2018-12-02T00:37:48.324Z,0.50
2018-12-02T00:40:16.440Z,0.93
2018-12-02T00:42:45.641Z,0.60
2018-12-02T00:45:15.951Z,0.60
2018-12-02T00:47:44.078Z,0.60
2018-12-02T00:50:13.339Z,0.80
2018-12-02T00:52:42.013Z,0.70
2018-12-02T00:55:17.420Z,0.50
2018-12-02T00:57:45.532Z,0.53
2018-12-02T01:00:14.557Z,0.57
2018-12-02T01:02:43.813Z,0.60
2018-12-02T01:05:13.169Z,0.50
2018-12-02T01:07:41.375Z,0.70
2018-12-02T01:10:28.019Z,0.70
2018-12-02T01:12:57.250Z,0.60
2018-12-02T01:15:27.345Z,0.50
2018-12-02T01:17:55.712Z,0.60
2018-12-02T01:20:24.154Z,0.60
2018-12-02T01:22:52.389Z,0.60
2018-12-02T01:25:20.554Z,0.50
2018-12-02T01:27:48.704Z,0.50
2018-12-02T01:30:20.955Z,0.50
2018-12-02T01:32:49.609Z,0.40
2018-12-02T01:35:18.396Z,0.60
2018-12-02T01:37:46.608Z,0.63
2018-12-02T01:40:15.765Z,0.40
2018-12-02T01:42:43.921Z,0.63
2018-12-02T01:45:17.026Z,0.30
2018-12-02T01:47:45.155Z,0.57
2018-12-02T01:50:17.091Z,0.50
2018-12-02T01:52:47.255Z,0.30
2018-12-02T01:55:15.411Z,0.40
2018-12-02T01:57:43.542Z,0.50
2018-12-02T02:00:15.701Z,0.50
2018-12-02T02:02:43.850Z,0.50
2018-12-02T02:05:11.981Z,0.60
2018-12-02T02:07:40.116Z,0.50
2018-12-02T02:10:11.256Z,0.50
2018-12-02T02:12:39.429Z,0.37
2018-12-02T02:15:09.131Z,0.50
2018-12-02T02:17:37.294Z,0.40
2018-12-02T02:20:07.644Z,0.57
2018-12-02T02:22:35.739Z,0.53
2018-12-02T02:25:04.058Z,0.40
2018-12-02T02:27:32.169Z,0.47
2018-12-02T02:30:00.068Z,0.50
2018-12-02T02:32:29.251Z,0.43
2018-12-02T02:34:57.377Z,0.37
2018-12-02T02:37:25.489Z,0.30
2018-12-02T02:39:53.392Z,0.50
2018-12-02T02:42:21.537Z,0.40
2018-12-02T02:44:49.673Z,0.40
2018-12-02T02:47:17.570Z,0.43
2018-12-02T02:49:45.789Z,0.50
2018-12-02T02:52:13.931Z,0.57
2018-12-02T02:54:42.105Z,0.50
2018-12-02T02:57:10.282Z,0.50
2018-12-02T02:59:38.466Z,0.43
2018-12-02T03:02:06.916Z,0.50
2018-12-02T03:04:35.198Z,0.43
2018-12-02T03:07:03.366Z,0.40
2018-12-02T03:09:31.325Z,0.40
2018-12-02T03:11:59.217Z,0.40
2018-12-02T03:14:27.087Z,0.30
2018-12-02T03:16:55.679Z,0.57
2018-12-02T03:19:23.791Z,0.63
2018-12-02T03:21:51.909Z,0.50
2018-12-02T03:24:20.026Z,0.40
2018-12-02T03:26:48.123Z,0.33
2018-12-02T03:29:16.243Z,0.57
2018-12-02T03:31:44.348Z,0.60
2018-12-02T03:34:12.485Z,0.60
2018-12-02T03:36:40.606Z,0.50
2018-12-02T03:39:08.716Z,0.53
2018-12-02T03:41:36.836Z,0.73
2018-12-02T03:44:04.952Z,0.40
2018-12-02T03:46:33.064Z,0.73
2018-12-02T03:49:01.177Z,0.60
2018-12-02T03:51:29.286Z,0.70
2018-12-02T03:53:57.377Z,0.80
2018-12-02T03:56:25.483Z,0.97
2018-12-02T03:58:53.580Z,0.60
2018-12-02T04:01:21.679Z,0.50
2018-12-02T04:03:49.883Z,0.53
2018-12-02T04:06:17.993Z,1.20
2018-12-02T04:08:46.083Z,0.70
2018-12-02T04:11:14.185Z,0.50
2018-12-02T04:13:42.280Z,0.57
2018-12-02T04:16:10.379Z,0.50
2018-12-02T04:18:44.926Z,0.60
2018-12-02T04:21:13.011Z,0.40
2018-12-02T04:23:41.129Z,0.70
2018-12-02T04:26:09.208Z,0.87
2018-12-02T04:28:37.316Z,0.50
2018-12-02T04:31:05.992Z,0.80
2018-12-02T04:33:34.084Z,0.60
2018-12-02T04:36:02.168Z,0.60
2018-12-02T04:38:30.270Z,0.33
2018-12-02T04:40:58.356Z,0.40
2018-12-02T04:43:26.447Z,0.70
2018-12-02T04:45:54.534Z,0.97
2018-12-02T04:48:22.624Z,0.40
2018-12-02T04:50:50.715Z,0.40
2018-12-02T04:53:18.812Z,0.50
2018-12-02T04:55:46.903Z,0.30
2018-12-02T04:58:14.998Z,0.60
2018-12-02T05:00:43.083Z,0.53
2018-12-02T05:03:11.213Z,0.40
2018-12-02T05:05:39.308Z,0.50
2018-12-02T05:08:07.179Z,0.60
2018-12-02T05:10:35.057Z,0.50
2018-12-02T05:13:03.156Z,0.53
2018-12-02T05:15:31.248Z,0.47
2018-12-02T05:17:59.352Z,0.43
2018-12-02T05:20:27.453Z,0.60
2018-12-02T05:22:55.554Z,0.53
2018-12-02T05:25:23.635Z,0.50
2018-12-02T05:27:51.838Z,0.50
2018-12-02T05:30:20.900Z,0.50
2018-12-02T05:32:53.572Z,0.50
2018-12-02T05:35:21.720Z,0.53
2018-12-02T05:37:49.842Z,0.30
2018-12-02T05:40:21.987Z,0.30
2018-12-02T05:42:50.294Z,0.43
2018-12-02T05:45:18.767Z,0.43
2018-12-02T05:47:46.879Z,0.50
2018-12-02T05:50:22.880Z,0.60
2018-12-02T05:52:54.848Z,0.50
2018-12-02T05:55:31.117Z,0.50
2018-12-02T05:57:59.223Z,0.43
2018-12-02T06:00:27.365Z,0.40
2018-12-02T06:02:55.481Z,0.30
2018-12-02T06:05:23.593Z,0.43
2018-12-02T06:07:51.733Z,0.70
2018-12-02T06:10:20.867Z,0.37
2018-12-02T06:12:49.048Z,0.50
2018-12-02T06:15:18.045Z,0.40
2018-12-02T06:17:46.211Z,0.40
2018-12-02T06:20:16.248Z,0.40
2018-12-02T06:22:44.456Z,0.50
2018-12-02T06:25:12.347Z,0.40
2018-12-02T06:27:40.460Z,0.37
2018-12-02T06:30:15.892Z,0.47
2018-12-02T06:32:44.218Z,0.50
2018-12-02T06:35:13.370Z,0.50
2018-12-02T06:37:42.429Z,0.40
2018-12-02T06:40:14.636Z,0.70
2018-12-02T06:42:42.761Z,0.57
2018-12-02T06:45:11.900Z,0.30
2018-12-02T06:47:40.040Z,0.50
2018-12-02T06:50:19.323Z,0.70
2018-12-02T06:52:47.468Z,0.40
2018-12-02T06:55:33.104Z,0.40
2018-12-02T06:58:08.010Z,0.30
2018-12-02T07:00:51.756Z,0.30
2018-12-02T07:03:25.440Z,0.60
2018-12-02T07:05:53.321Z,0.50
2018-12-02T07:08:21.463Z,0.47
2018-12-02T07:10:49.572Z,0.30
2018-12-02T07:13:17.697Z,0.40
2018-12-02T07:15:45.575Z,0.30
2018-12-02T07:18:16.035Z,0.40
2018-12-02T07:20:44.139Z,0.50
2018-12-02T07:23:12.276Z,0.40
2018-12-02T07:25:40.399Z,0.50
2018-12-02T07:28:08.508Z,0.40
2018-12-02T07:30:36.644Z,0.60
2018-12-02T07:33:05.168Z,0.50
2018-12-02T07:35:33.424Z,0.47
2018-12-02T07:38:05.399Z,0.40
2018-12-02T07:40:35.124Z,0.60
2018-12-02T07:43:05.033Z,0.40
2018-12-02T07:45:33.984Z,0.30
2018-12-02T07:48:00.796Z,0.50
2018-12-02T07:50:28.907Z,0.57
2018-12-02T07:52:57.012Z,0.40
2018-12-02T07:55:25.116Z,0.40
2018-12-02T07:57:53.244Z,0.33
2018-12-02T08:00:21.122Z,0.40
2018-12-02T08:02:49.216Z,0.50
2018-12-02T08:05:17.732Z,0.40
2018-12-02T08:07:48.105Z,0.50
2018-12-02T08:10:18.611Z,0.60
2018-12-02T08:12:46.701Z,0.37
2018-12-02T08:15:18.759Z,0.30
2018-12-02T08:17:46.864Z,0.40
2018-12-02T08:20:16.044Z,0.40
2018-12-02T08:22:44.522Z,0.40
2018-12-02T08:25:14.642Z,0.50
2018-12-02T08:27:42.799Z,0.30
2018-12-02T08:30:19.934Z,0.60
2018-12-02T08:32:49.008Z,0.50
2018-12-02T08:35:18.243Z,0.40
2018-12-02T08:37:49.740Z,0.40
2018-12-02T08:40:17.841Z,0.40
2018-12-02T08:42:45.952Z,0.40
2018-12-02T08:45:14.992Z,0.50
2018-12-02T08:47:43.988Z,0.30
2018-12-02T08:50:13.219Z,0.40
2018-12-02T08:52:41.331Z,0.37
2018-12-02T08:55:10.651Z,0.40
2018-12-02T08:57:38.780Z,0.30
2018-12-02T09:00:12.755Z,0.50
2018-12-02T09:02:41.010Z,0.50
2018-12-02T09:05:09.576Z,0.40
2018-12-02T09:07:37.708Z,0.30
2018-12-02T09:10:10.008Z,0.30
2018-12-02T09:12:38.165Z,0.30
2018-12-02T09:15:08.248Z,0.40
2018-12-02T09:17:36.365Z,0.60
2018-12-02T09:20:09.472Z,0.33
2018-12-02T09:22:37.739Z,0.40
2018-12-02T09:25:05.887Z,0.50
2018-12-02T09:27:34.000Z,0.50
2018-12-02T09:30:01.884Z,0.40
2018-12-02T09:32:30.000Z,0.30
2018-12-02T09:34:58.119Z,0.40
2018-12-02T09:37:26.016Z,0.40
2018-12-02T09:39:54.133Z,0.30
2018-12-02T09:42:22.259Z,0.40
2018-12-02T09:44:50.389Z,0.50
2018-12-02T09:47:18.508Z,0.30
2018-12-02T09:49:46.424Z,0.60
2018-12-02T09:52:14.545Z,0.40
2018-12-02T09:54:42.645Z,0.50
2018-12-02T09:57:10.732Z,0.50
2018-12-02T09:59:38.829Z,0.43
2018-12-02T10:02:06.936Z,0.40
2018-12-02T10:04:35.059Z,0.50
2018-12-02T10:07:03.160Z,0.40
2018-12-02T10:09:31.044Z,0.50
2018-12-02T10:11:58.927Z,0.60
2018-12-02T10:14:27.041Z,0.60
2018-12-02T10:16:55.135Z,0.60
2018-12-02T10:19:28.951Z,0.33
2018-12-02T10:21:57.141Z,0.37
2018-12-02T10:24:25.007Z,0.40
2018-12-02T10:26:53.105Z,0.47
2018-12-02T10:29:21.200Z,0.50
2018-12-02T10:31:49.299Z,0.50
2018-12-02T10:34:17.395Z,0.60
2018-12-02T10:36:45.281Z,0.50
2018-12-02T10:39:13.145Z,0.30
2018-12-02T10:41:41.023Z,0.40
2018-12-02T10:44:09.123Z,0.40
2018-12-02T10:46:37.224Z,0.50
2018-12-02T10:49:05.435Z,0.63
2018-12-02T10:51:33.435Z,0.40
2018-12-02T10:54:01.646Z,0.53
2018-12-02T10:56:29.747Z,0.50
2018-12-02T10:58:57.884Z,0.40
2018-12-02T11:01:31.488Z,0.50
2018-12-02T11:03:59.604Z,0.40
2018-12-02T11:06:27.741Z,0.50
2018-12-02T11:08:55.858Z,0.60
2018-12-02T11:11:23.736Z,0.40
2018-12-02T11:13:51.620Z,0.50
2018-12-02T11:16:19.483Z,0.33
2018-12-02T11:18:47.370Z,0.40
2018-12-02T11:21:15.488Z,0.40
2018-12-02T11:23:43.365Z,0.30
2018-12-02T11:26:11.495Z,0.40
2018-12-02T11:28:39.385Z,0.30
2018-12-02T11:31:07.592Z,0.33
2018-12-02T11:33:35.718Z,0.40
2018-12-02T11:36:03.884Z,0.40
2018-12-02T11:38:31.793Z,0.40
2018-12-02T11:40:59.683Z,0.40
2018-12-02T11:43:27.804Z,0.37
2018-12-02T11:45:55.936Z,0.30
2018-12-02T11:48:23.810Z,0.40
2018-12-02T11:50:51.926Z,0.50
2018-12-02T11:53:20.033Z,0.40
2018-12-02T11:55:48.086Z,0.40
2018-12-02T11:58:16.203Z,0.30
2018-12-02T12:00:44.323Z,0.67
2018-12-02T12:03:12.494Z,0.80
2018-12-02T12:05:40.688Z,0.40
2018-12-02T12:08:10.909Z,0.40
2018-12-02T12:10:39.092Z,0.50
2018-12-02T12:13:07.229Z,0.40
2018-12-02T12:15:35.568Z,1.03
2018-12-02T12:18:03.447Z,0.50
2018-12-02T12:20:39.815Z,0.97
2018-12-02T12:23:11.285Z,0.50
2018-12-02T12:25:39.391Z,0.50
2018-12-02T12:28:08.376Z,0.50
2018-12-02T12:30:37.356Z,0.60
2018-12-02T12:33:06.985Z,0.40
2018-12-02T12:35:35.302Z,0.50
2018-12-02T12:38:03.195Z,0.43
2018-12-02T12:40:31.990Z,0.40
2018-12-02T12:43:01.979Z,0.50
2018-12-02T12:45:30.131Z,0.30
2018-12-02T12:47:58.042Z,0.57
2018-12-02T12:50:26.179Z,0.60
2018-12-02T12:52:54.407Z,1.00
2018-12-02T12:55:22.484Z,0.67
2018-12-02T12:57:51.304Z,0.67
2018-12-02T13:00:21.615Z,0.40
2018-12-02T13:02:49.779Z,0.40
2018-12-02T13:05:26.252Z,0.50
2018-12-02T13:07:55.128Z,0.77
2018-12-02T13:10:24.047Z,0.80
2018-12-02T13:12:52.360Z,0.50
2018-12-02T13:15:21.572Z,0.77
2018-12-02T13:17:51.455Z,0.63
2018-12-02T13:20:19.575Z,0.40
2018-12-02T13:22:47.671Z,0.73
2018-12-02T13:25:15.707Z,0.50
2018-12-02T13:27:44.904Z,0.70
2018-12-02T13:30:17.835Z,0.53
2018-12-02T13:32:46.347Z,1.00
2018-12-02T13:35:14.457Z,0.70
2018-12-02T13:37:42.540Z,0.50
2018-12-02T13:40:11.880Z,0.40
2018-12-02T13:42:42.629Z,0.47
2018-12-02T13:45:16.480Z,0.70
2018-12-02T13:47:46.517Z,0.30
2018-12-02T13:50:19.109Z,0.60
2018-12-02T13:52:48.364Z,0.60
2018-12-02T13:55:17.580Z,0.90
2018-12-02T13:57:46.371Z,0.50
2018-12-02T14:00:17.898Z,0.70
2018-12-02T14:02:48.243Z,0.90
2018-12-02T14:05:16.131Z,1.23
2018-12-02T14:07:44.279Z,1.00
2018-12-02T14:10:13.558Z,0.77
2018-12-02T14:12:44.055Z,0.80
2018-12-02T14:15:24.584Z,0.97
2018-12-02T14:17:54.042Z,0.87
2018-12-02T14:20:21.930Z,1.67
2018-12-02T14:22:49.811Z,1.00
2018-12-02T14:25:17.993Z,1.40
2018-12-02T14:27:46.638Z,1.10
2018-12-02T14:30:17.396Z,1.20
2018-12-02T14:32:45.523Z,1.20
2018-12-02T14:35:13.643Z,1.43
2018-12-02T14:37:41.529Z,1.63
2018-12-02T14:40:10.051Z,1.37
2018-12-02T14:42:38.335Z,1.00
2018-12-02T14:45:08.771Z,1.33
2018-12-02T14:47:36.657Z,1.60
2018-12-02T14:50:05.555Z,1.07
2018-12-02T14:52:33.692Z,1.50
2018-12-02T14:55:01.588Z,1.87
2018-12-02T14:57:29.697Z,1.83
2018-12-02T14:59:57.840Z,1.10
2018-12-02T15:02:25.751Z,1.30
2018-12-02T15:04:53.716Z,1.03
2018-12-02T15:07:21.869Z,1.30
2018-12-02T15:09:49.766Z,1.47
2018-12-02T15:12:17.639Z,1.37
2018-12-02T15:14:45.544Z,1.10
2018-12-02T15:17:13.650Z,1.27
2018-12-02T15:19:41.760Z,1.17
2018-12-02T15:22:09.708Z,1.50
2018-12-02T15:24:37.844Z,1.63
2018-12-02T15:28:30.452Z,2.43
2018-12-02T15:30:58.367Z,2.43
2018-12-02T15:33:26.489Z,2.00
2018-12-02T15:35:54.396Z,2.50
2018-12-02T15:38:22.509Z,1.40
2018-12-02T15:40:50.649Z,1.63
2018-12-02T15:43:18.765Z,1.60
2018-12-02T15:45:46.880Z,1.37
2018-12-02T15:48:14.765Z,1.87
2018-12-02T15:50:42.736Z,1.57
2018-12-02T15:53:10.661Z,1.70
2018-12-02T15:55:38.550Z,1.90
2018-12-02T15:58:07.327Z,1.87
2018-12-02T16:00:36.913Z,1.50
2018-12-02T16:03:05.100Z,1.03
2018-12-02T16:05:32.976Z,0.80
2018-12-02T16:08:00.840Z,0.80
2018-12-02T16:10:28.941Z,1.50
2018-12-02T16:12:57.028Z,1.30
2018-12-02T16:15:25.789Z,1.30
2018-12-02T16:17:53.656Z,1.90
2018-12-02T16:20:23.344Z,1.40
2018-12-02T16:22:51.278Z,1.30
2018-12-02T16:25:19.463Z,1.77
2018-12-02T16:27:47.572Z,1.60
2018-12-02T16:30:16.967Z,1.77
2018-12-02T16:32:51.864Z,1.50
2018-12-02T16:35:19.830Z,1.50
2018-12-02T16:37:49.964Z,1.83
2018-12-02T16:40:25.545Z,1.53
2018-12-02T16:42:54.008Z,1.57
2018-12-02T16:45:22.018Z,1.77
2018-12-02T16:47:51.424Z,1.87
2018-12-02T16:50:27.852Z,1.70
2018-12-02T16:52:56.323Z,1.43
2018-12-02T16:55:26.304Z,1.73
2018-12-02T16:57:58.669Z,1.60
2018-12-02T17:00:33.192Z,1.27
2018-12-02T17:03:01.290Z,1.60
2018-12-02T17:05:29.156Z,1.27
2018-12-02T17:07:57.031Z,1.93
2018-12-02T17:10:25.121Z,1.87
2018-12-02T17:12:54.107Z,1.83
2018-12-02T17:15:21.979Z,1.63
2018-12-02T17:17:50.059Z,1.73
2018-12-02T17:20:18.165Z,1.37
2018-12-02T17:22:46.647Z,1.50
2018-12-02T17:25:15.066Z,1.53
2018-12-02T17:27:44.731Z,1.50
2018-12-02T17:30:16.827Z,1.90
2018-12-02T17:32:44.709Z,2.37
2018-12-02T17:35:12.597Z,1.87
2018-12-02T17:37:40.466Z,1.77
2018-12-02T17:40:12.763Z,1.90
2018-12-02T17:42:40.671Z,1.63
2018-12-02T17:45:09.734Z,1.60
2018-12-02T17:47:37.627Z,1.83
2018-12-02T17:50:09.861Z,1.47
2018-12-02T17:52:38.033Z,1.53
2018-12-02T17:55:06.396Z,1.27
2018-12-02T17:57:34.608Z,1.37
2018-12-02T18:00:02.714Z,1.40
2018-12-02T18:02:30.583Z,1.40
2018-12-02T18:04:58.692Z,1.57
2018-12-02T18:07:26.801Z,1.30
2018-12-02T18:09:54.919Z,1.40
2018-12-02T18:12:23.038Z,1.73
2018-12-02T18:14:51.252Z,1.67
2018-12-02T18:17:19.391Z,1.30
2018-12-02T18:19:47.492Z,1.70
2018-12-02T18:22:15.616Z,1.53
2018-12-02T18:24:43.736Z,1.67
2018-12-02T18:27:11.605Z,1.50
2018-12-02T18:29:39.717Z,1.50
2018-12-02T18:32:07.591Z,1.20
2018-12-02T18:34:35.518Z,1.47
2018-12-02T18:37:04.066Z,1.50
2018-12-02T18:39:32.167Z,1.13
2018-12-02T18:42:00.363Z,1.10
2018-12-02T18:44:28.506Z,1.47
2018-12-02T18:46:56.633Z,1.23
2018-12-02T18:49:24.761Z,1.63
2018-12-02T18:51:52.876Z,1.10
2018-12-02T18:54:20.997Z,1.13
2018-12-02T18:56:48.875Z,1.33
2018-12-02T18:59:16.976Z,1.77
2018-12-02T19:01:45.067Z,1.30
2018-12-02T19:04:13.184Z,1.40
2018-12-02T19:06:41.060Z,1.30
2018-12-02T19:09:09.879Z,1.60
2018-12-02T19:11:37.978Z,1.80
2018-12-02T19:14:06.075Z,1.87
2018-12-02T19:16:34.183Z,1.97
2018-12-02T19:19:02.300Z,1.97
2018-12-02T19:21:31.131Z,1.53
2018-12-02T19:23:59.652Z,2.00
2018-12-02T19:26:27.694Z,2.70
2018-12-02T19:28:55.872Z,1.87
2018-12-02T19:31:24.043Z,2.07
2018-12-02T19:33:54.332Z,2.10
2018-12-02T19:36:25.148Z,2.57
2018-12-02T19:38:53.039Z,2.27
2018-12-02T19:41:21.213Z,1.60
2018-12-02T19:43:49.323Z,2.50
2018-12-02T19:46:17.187Z,1.53
2018-12-02T19:48:45.052Z,1.63
2018-12-02T19:51:13.303Z,1.73
2018-12-02T19:53:41.437Z,1.90
2018-12-02T19:56:09.588Z,1.80
2018-12-02T19:58:37.683Z,2.17
2018-12-02T20:01:05.854Z,1.47
2018-12-02T20:03:33.973Z,1.70
2018-12-02T20:06:02.168Z,1.43
2018-12-02T20:08:30.327Z,1.60
2018-12-02T20:10:58.448Z,1.90
2018-12-02T20:13:27.351Z,1.80
2018-12-02T20:16:00.951Z,1.47
2018-12-02T20:18:29.048Z,1.50
2018-12-02T20:20:58.360Z,1.77
2018-12-02T20:23:31.932Z,1.50
2018-12-02T20:26:01.265Z,1.40
2018-12-02T20:28:33.810Z,1.50
2018-12-02T20:31:04.387Z,1.20
2018-12-02T20:33:32.560Z,1.10
2018-12-02T20:36:00.700Z,1.20
2018-12-02T20:38:28.841Z,1.07
2018-12-02T20:40:56.984Z,1.43
2018-12-02T20:43:25.178Z,1.00
2018-12-02T20:45:53.282Z,1.20
2018-12-02T20:48:21.192Z,1.40
2018-12-02T20:50:49.332Z,1.40
2018-12-02T20:53:17.438Z,1.67
2018-12-02T20:55:45.544Z,1.50
2018-12-02T20:58:13.648Z,1.50
2018-12-02T21:00:41.774Z,1.43
2018-12-02T21:03:15.211Z,1.17
2018-12-02T21:05:45.623Z,1.37
2018-12-02T21:08:13.507Z,1.37
2018-12-02T21:10:41.383Z,1.47
2018-12-02T21:13:09.256Z,1.60
2018-12-02T21:15:37.123Z,1.30
2018-12-02T21:18:05.231Z,1.10
2018-12-02T21:20:33.332Z,1.00
2018-12-02T21:23:01.419Z,1.13
2018-12-02T21:25:29.600Z,1.00
2018-12-02T21:27:57.772Z,1.10
2018-12-02T21:30:27.244Z,1.27
2018-12-02T21:32:55.348Z,1.33
2018-12-02T21:35:23.331Z,1.43
2018-12-02T21:37:51.859Z,1.70
2018-12-02T21:40:19.992Z,1.10
2018-12-02T21:42:48.089Z,1.30
2018-12-02T21:45:17.675Z,1.10
2018-12-02T21:47:46.189Z,1.20
2018-12-02T21:50:19.000Z,1.20
2018-12-02T21:52:47.089Z,1.40
2018-12-02T21:55:14.983Z,1.53
2018-12-02T21:57:43.072Z,1.60
2018-12-02T22:00:18.004Z,1.33
2018-12-02T22:02:46.171Z,1.50
2018-12-02T22:05:14.336Z,1.43
2018-12-02T22:07:42.500Z,1.20
2018-12-02T22:10:14.038Z,1.30
2018-12-02T22:12:42.167Z,1.43
2018-12-02T22:15:10.258Z,1.50
2018-12-02T22:17:38.397Z,1.50
2018-12-02T22:20:12.237Z,1.30
2018-12-02T22:22:40.540Z,1.47
2018-12-02T22:25:11.783Z,1.53
2018-12-02T22:27:39.964Z,1.60
2018-12-02T22:30:09.655Z,1.70
2018-12-02T22:32:37.756Z,1.57
2018-12-02T22:35:07.847Z,1.80
2018-12-02T22:37:35.980Z,1.80
2018-12-02T22:40:07.140Z,1.70
2018-12-02T22:42:35.030Z,1.93
2018-12-02T22:45:03.167Z,1.40
2018-12-02T22:47:31.274Z,1.70
2018-12-02T22:49:59.360Z,1.83
2018-12-02T22:52:27.500Z,2.00
2018-12-02T22:54:55.617Z,1.10
2018-12-02T22:57:23.797Z,1.37
2018-12-02T22:59:51.997Z,1.60
2018-12-02T23:02:25.315Z,1.60
2018-12-02T23:04:53.205Z,1.40
2018-12-02T23:07:21.115Z,1.47
2018-12-02T23:09:49.293Z,1.43
2018-12-02T23:12:17.212Z,1.27
2018-12-02T23:14:45.404Z,2.10
2018-12-02T23:17:20.796Z,1.47
2018-12-02T23:19:48.931Z,1.60
2018-12-02T23:22:17.053Z,1.53
2018-12-02T23:24:44.955Z,2.00
2018-12-02T23:27:12.890Z,1.63
2018-12-02T23:29:40.984Z,2.00
2018-12-02T23:32:09.140Z,1.47
2018-12-02T23:34:37.046Z,1.50
2018-12-02T23:37:05.283Z,1.57
2018-12-02T23:39:33.174Z,1.40
2018-12-02T23:42:01.050Z,1.77
2018-12-02T23:44:28.939Z,1.83
2018-12-02T23:46:57.102Z,1.97
2018-12-02T23:49:25.225Z,1.70
2018-12-02T23:51:53.103Z,1.77
2018-12-02T23:54:21.235Z,2.37
2018-12-02T23:56:49.128Z,1.80
2018-12-02T23:59:17.239Z,2.30
